Ruby Princess — ZCDY2 — position and weather

sailwx.info

Track history (hours):
 
Tides and Currents Weather Stations Pressure Air Temp Water Temp Dewpoint Dewpoint Depression Visibility Wind Speed Wind Dir Waves Ship Positions

Ruby Princess

Last reported at 2020-Apr-02 19:30 UTC. Time now 2020-Apr-02 21:44 UTC.
Position S 34°16' E 151°16'.

Length 289 m; draft 8.7 m.

Type: Ship. MMSI: 310567000.

Date/timePositionNaut miles runAvg speedWind from/ knotsBaromVisibWave heightAir tempDewpointWater temp
2020-Apr-02 19:30S 34°16' E 151°16'1 1.5
2020-Apr-02 18:57S 34°16' E 151°17'1 1.1
2020-Apr-02 18:29S 34°15' E 151°17'2 0.7
2020-Apr-02 15:30S 34°14' E 151°19'3 1.2
2020-Apr-02 13:25S 34°11' E 151°19'2 1.1
2020-Apr-02 12:00S 34°10' E 151°19'4340.1
2020-Apr-02 12:00S 34°06' E 151°18'3 3.1 340 / 141011.210.8 21.018.621.0
2020-Apr-02 11:00S 34°08' E 151°20'1 2.0
2020-Apr-02 10:30S 34°09' E 151°20'2 2.1
2020-Apr-02 09:29S 34°10' E 151°23'3 2.3
2020-Apr-02 08:00S 34°08' E 151°19'1 2.1
2020-Apr-02 07:25S 34°07' E 151°18'6 2.9
2020-Apr-02 05:30S 34°02' E 151°15'3 0.9
2020-Apr-02 02:29S 34°02' E 151°18'0 0.9
2020-Apr-02 02:00S 34°02' E 151°18'1 0.5
2020-Apr-01 23:00S 34°02' E 151°20'0 0.2
2020-Apr-01 22:30S 34°02' E 151°20'3 2.6
2020-Apr-01 21:30S 34°04' E 151°20'3 6.4
2020-Apr-01 21:00S 34°07' E 151°18'5 1.2
2020-Apr-01 16:55S 34°12' E 151°17'0 0.7
2020-Apr-01 16:22S 34°12' E 151°18'6 0.3
2020-Mar-31 22:00S 34°07' E 151°22'1 1.3
2020-Mar-31 21:00S 34°07' E 151°23'1 1.4
2020-Mar-31 20:30S 34°07' E 151°24'3 1.1
2020-Mar-31 18:00S 34°05' E 151°26'3 2.0
2020-Mar-31 16:30S 34°02' E 151°25'0 0.5
2020-Mar-31 16:00S 34°02' E 151°25'7 1.6
2020-Mar-31 11:30S 34°01' E 151°17'1 1.3
2020-Mar-31 11:00S 34°01' E 151°18'2 2.1
2020-Mar-31 10:00S 34°01' E 151°20'612.4
2020-Mar-31 09:31S 33°55' E 151°23'1817.6
2020-Mar-31 08:31S 33°40' E 151°34'1210.8
2020-Mar-31 07:26S 33°30' E 151°40'3 3.4
2020-Mar-31 06:30S 33°27' E 151°41'1 0.6
2020-Mar-31 05:01S 33°27' E 151°41'0 0.4
2020-Mar-31 04:28S 33°28' E 151°41'1 0.6
2020-Mar-31 03:27S 33°28' E 151°42'8 0.8
2020-Mar-30 17:30S 33°33' E 151°34'1 1.2
2020-Mar-30 16:30S 33°35' E 151°35'2 1.1
2020-Mar-30 14:30S 33°36' E 151°33'1 1.0
2020-Mar-30 14:00S 33°37' E 151°33'6 2.8
2020-Mar-30 12:00S 33°42' E 151°31'13 9.0
2020-Mar-30 10:30S 33°55' E 151°26'5 2.6
2020-Mar-30 08:30S 33°58' E 151°21'0 0.2
2020-Mar-30 08:00S 33°58' E 151°21'1 0.7
2020-Mar-30 06:00S 33°57' E 151°23'510.1
2020-Mar-30 05:30S 33°54' E 151°27'5 4.8
2020-Mar-30 04:30S 33°49' E 151°29'3 1.2
2020-Mar-30 02:00S 33°50' E 151°26'0 0.2
2020-Mar-30 01:30S 33°50' E 151°26'1 0.2
2020-Mar-29 22:30S 33°51' E 151°26'1 0.9
2020-Mar-29 21:30S 33°50' E 151°27'6 5.7
2020-Mar-29 20:30S 33°45' E 151°29'2 2.0
2020-Mar-29 19:30S 33°43' E 151°30'0 0.7
2020-Mar-29 19:00S 33°42' E 151°30'1 1.0
2020-Mar-29 18:00S 33°41' E 151°31'0 1.0
2020-Mar-29 17:30S 33°41' E 151°31'1 1.0
2020-Mar-29 16:26S 33°40' E 151°30'4 1.9
2020-Mar-29 14:30S 33°37' E 151°27'2 1.6
2020-Mar-29 13:30S 33°38' E 151°29'3 6.9
2020-Mar-29 13:00S 33°42' E 151°28'4 8.1
2020-Mar-29 12:30S 33°46' E 151°28'8 8.0
2020-Mar-29 11:30S 33°53' E 151°27'10 4.1
2020-Mar-29 09:01S 34°00' E 151°18'31 5.7
2020-Mar-29 03:30S 33°36' E 151°41'5716.3
2020-Mar-29 00:00S 32°52' E 152°24'4 7.7
2020-Mar-28 23:30S 32°55' E 152°22'20 7.9
2020-Mar-28 21:00S 33°06' E 152°02'50 9.0
2020-Mar-28 15:30S 33°51' E 151°37'18 6.1
2020-Mar-28 12:30S 34°08' E 151°45'5 9.3
2020-Mar-28 12:00S 34°08' E 151°51'7 9.3
2020-Mar-28 11:15S 34°07' E 151°59'8 2.9
2020-Mar-28 08:30S 34°01' E 151°53'18 9.0
2020-Mar-28 06:30S 33°57' E 151°32'5 9.5
2020-Mar-28 06:00S 33°55' E 151°27'1 0.4
2020-Mar-28 03:00S 33°55' E 151°26'0 1.0
2020-Mar-28 02:30S 33°55' E 151°26'0 1.0
2020-Mar-28 02:00S 33°55' E 151°27'1 1.1
2020-Mar-28 01:00S 33°55' E 151°28'3 1.1
2020-Mar-27 22:30S 33°56' E 151°31'1 1.3
2020-Mar-27 21:30S 33°57' E 151°32'6 1.4
2020-Mar-27 17:00S 34°00' E 151°39'1 1.5
2020-Mar-27 16:30S 34°00' E 151°40'1 1.4
2020-Mar-27 16:00S 34°01' E 151°40'1 0.9
2020-Mar-27 14:37S 34°00' E 151°42'7 6.7
2020-Mar-27 13:30S 34°01' E 151°33'10 9.7
2020-Mar-27 12:30S 34°01' E 151°21'4 6.8
2020-Mar-27 11:55S 34°01' E 151°16'2 1.3
2020-Mar-27 10:30S 34°02' E 151°18'2 3.3
2020-Mar-27 10:00S 34°01' E 151°17'7 3.1
2020-Mar-27 07:54S 33°59' E 151°24'6 3.0
2020-Mar-27 06:00S 33°53' E 151°23'8 3.2
2020-Mar-27 03:30S 33°55' E 151°32'9 1.5
2020-Mar-26 21:30S 33°49' E 151°24'510.1
2020-Mar-26 21:00S 33°53' E 151°22'28 1.3
2020-Mar-25 22:58S 33°44' E 151°53'15 6.1
2020-Mar-25 20:30S 33°33' E 151°40'39 7.8
2020-Mar-25 15:31S 34°07' E 151°17'1 0.3
2020-Mar-25 13:30S 34°07' E 151°17'2 3.1
2020-Mar-25 13:00S 34°07' E 151°19'8 3.1
2020-Mar-25 10:30S 34°05' E 151°27'9 4.5
2020-Mar-25 08:30S 34°03' E 151°38'510.2
2020-Mar-25 08:00S 34°03' E 151°44'12 1.7
2020-Mar-25 00:40S 34°04' E 151°59'0 1.3
2020-Mar-25 00:30S 34°04' E 151°59'3 1.7
2020-Mar-24 22:35S 34°03' E 151°55'3 2.1
2020-Mar-24 21:22S 34°02' E 151°52'3 2.5
2020-Mar-24 20:00S 33°60' E 151°49'1 2.8
2020-Mar-24 19:31S 33°59' E 151°47'1 2.8
2020-Mar-24 19:01S 33°58' E 151°46'5 3.0
2020-Mar-24 17:31S 33°55' E 151°42'1 2.8
2020-Mar-24 17:01S 33°54' E 151°41'3 2.1
2020-Mar-24 15:30S 33°52' E 151°39'1510.1
2020-Mar-24 13:59S 33°52' E 151°57'3 7.0
2020-Mar-24 13:30S 33°54' E 151°53'5 9.4
2020-Mar-24 13:00S 33°53' E 151°48'18 5.8
2020-Mar-24 10:00S 33°51' E 151°27'3 2.3
2020-Mar-24 08:30S 33°51' E 151°31'1 2.3
2020-Mar-24 08:00S 33°51' E 151°32'1 2.1
2020-Mar-24 07:30S 33°51' E 151°34'5 2.3
2020-Mar-24 05:30S 33°51' E 151°39'15 3.8
2020-Mar-24 01:30S 33°60' E 151°24'3 2.6
2020-Mar-24 00:30S 34°01' E 151°22'1 1.1
2020-Mar-23 23:30S 34°01' E 151°23'2 0.8
2020-Mar-23 20:57S 33°60' E 151°25'2 1.3
2020-Mar-23 19:30S 34°01' E 151°26'  
Track history (hours):
 
Tides and Currents Weather Stations Pressure Air Temp Water Temp Dewpoint Dewpoint Depression Visibility Wind Speed Wind Dir Waves Ship Positions

Ruby Princess

Last reported at 2020-Apr-02 19:30 UTC. Time now 2020-Apr-02 21:44 UTC.
Position S 34°16' E 151°16'.

Length 289 m; draft 8.7 m.

Type: Ship. MMSI: 310567000.

Date/timePositionNaut miles runAvg speedWind from/ knotsBaromVisibWave heightAir tempDewpointWater temp
2020-Apr-02 19:30S 34°16' E 151°16'1 1.5
2020-Apr-02 18:57S 34°16' E 151°17'1 1.1
2020-Apr-02 18:29S 34°15' E 151°17'2 0.7
2020-Apr-02 15:30S 34°14' E 151°19'3 1.2
2020-Apr-02 13:25S 34°11' E 151°19'2 1.1
2020-Apr-02 12:00S 34°10' E 151°19'4340.1
2020-Apr-02 12:00S 34°06' E 151°18'3 3.1 340 / 141011.210.8 21.018.621.0
2020-Apr-02 11:00S 34°08' E 151°20'1 2.0
2020-Apr-02 10:30S 34°09' E 151°20'2 2.1
2020-Apr-02 09:29S 34°10' E 151°23'3 2.3
2020-Apr-02 08:00S 34°08' E 151°19'1 2.1
2020-Apr-02 07:25S 34°07' E 151°18'6 2.9
2020-Apr-02 05:30S 34°02' E 151°15'3 0.9
2020-Apr-02 02:29S 34°02' E 151°18'0 0.9
2020-Apr-02 02:00S 34°02' E 151°18'1 0.5
2020-Apr-01 23:00S 34°02' E 151°20'0 0.2
2020-Apr-01 22:30S 34°02' E 151°20'3 2.6
2020-Apr-01 21:30S 34°04' E 151°20'3 6.4
2020-Apr-01 21:00S 34°07' E 151°18'5 1.2
2020-Apr-01 16:55S 34°12' E 151°17'0 0.7
2020-Apr-01 16:22S 34°12' E 151°18'6 0.3
2020-Mar-31 22:00S 34°07' E 151°22'1 1.3
2020-Mar-31 21:00S 34°07' E 151°23'1 1.4
2020-Mar-31 20:30S 34°07' E 151°24'3 1.1
2020-Mar-31 18:00S 34°05' E 151°26'3 2.0
2020-Mar-31 16:30S 34°02' E 151°25'0 0.5
2020-Mar-31 16:00S 34°02' E 151°25'7 1.6
2020-Mar-31 11:30S 34°01' E 151°17'1 1.3
2020-Mar-31 11:00S 34°01' E 151°18'2 2.1
2020-Mar-31 10:00S 34°01' E 151°20'612.4
2020-Mar-31 09:31S 33°55' E 151°23'1817.6
2020-Mar-31 08:31S 33°40' E 151°34'1210.8
2020-Mar-31 07:26S 33°30' E 151°40'3 3.4
2020-Mar-31 06:30S 33°27' E 151°41'1 0.6
2020-Mar-31 05:01S 33°27' E 151°41'0 0.4
2020-Mar-31 04:28S 33°28' E 151°41'1 0.6
2020-Mar-31 03:27S 33°28' E 151°42'8 0.8
2020-Mar-30 17:30S 33°33' E 151°34'1 1.2
2020-Mar-30 16:30S 33°35' E 151°35'2 1.1
2020-Mar-30 14:30S 33°36' E 151°33'1 1.0
2020-Mar-30 14:00S 33°37' E 151°33'6 2.8
2020-Mar-30 12:00S 33°42' E 151°31'13 9.0
2020-Mar-30 10:30S 33°55' E 151°26'5 2.6
2020-Mar-30 08:30S 33°58' E 151°21'0 0.2
2020-Mar-30 08:00S 33°58' E 151°21'1 0.7
2020-Mar-30 06:00S 33°57' E 151°23'510.1
2020-Mar-30 05:30S 33°54' E 151°27'5 4.8
2020-Mar-30 04:30S 33°49' E 151°29'3 1.2
2020-Mar-30 02:00S 33°50' E 151°26'0 0.2
2020-Mar-30 01:30S 33°50' E 151°26'1 0.2
2020-Mar-29 22:30S 33°51' E 151°26'1 0.9
2020-Mar-29 21:30S 33°50' E 151°27'6 5.7
2020-Mar-29 20:30S 33°45' E 151°29'2 2.0
2020-Mar-29 19:30S 33°43' E 151°30'0 0.7
2020-Mar-29 19:00S 33°42' E 151°30'1 1.0
2020-Mar-29 18:00S 33°41' E 151°31'0 1.0
2020-Mar-29 17:30S 33°41' E 151°31'1 1.0
2020-Mar-29 16:26S 33°40' E 151°30'4 1.9
2020-Mar-29 14:30S 33°37' E 151°27'2 1.6
2020-Mar-29 13:30S 33°38' E 151°29'3 6.9
2020-Mar-29 13:00S 33°42' E 151°28'4 8.1
2020-Mar-29 12:30S 33°46' E 151°28'8 8.0
2020-Mar-29 11:30S 33°53' E 151°27'10 4.1
2020-Mar-29 09:01S 34°00' E 151°18'31 5.7
2020-Mar-29 03:30S 33°36' E 151°41'5716.3
2020-Mar-29 00:00S 32°52' E 152°24'4 7.7
2020-Mar-28 23:30S 32°55' E 152°22'20 7.9
2020-Mar-28 21:00S 33°06' E 152°02'50 9.0
2020-Mar-28 15:30S 33°51' E 151°37'18 6.1
2020-Mar-28 12:30S 34°08' E 151°45'5 9.3
2020-Mar-28 12:00S 34°08' E 151°51'7 9.3
2020-Mar-28 11:15S 34°07' E 151°59'8 2.9
2020-Mar-28 08:30S 34°01' E 151°53'18 9.0
2020-Mar-28 06:30S 33°57' E 151°32'5 9.5
2020-Mar-28 06:00S 33°55' E 151°27'1 0.4
2020-Mar-28 03:00S 33°55' E 151°26'0 1.0
2020-Mar-28 02:30S 33°55' E 151°26'0 1.0
2020-Mar-28 02:00S 33°55' E 151°27'1 1.1
2020-Mar-28 01:00S 33°55' E 151°28'3 1.1
2020-Mar-27 22:30S 33°56' E 151°31'1 1.3
2020-Mar-27 21:30S 33°57' E 151°32'6 1.4
2020-Mar-27 17:00S 34°00' E 151°39'1 1.5
2020-Mar-27 16:30S 34°00' E 151°40'1 1.4
2020-Mar-27 16:00S 34°01' E 151°40'1 0.9
2020-Mar-27 14:37S 34°00' E 151°42'7 6.7
2020-Mar-27 13:30S 34°01' E 151°33'10 9.7
2020-Mar-27 12:30S 34°01' E 151°21'4 6.8
2020-Mar-27 11:55S 34°01' E 151°16'2 1.3
2020-Mar-27 10:30S 34°02' E 151°18'2 3.3
2020-Mar-27 10:00S 34°01' E 151°17'7 3.1
2020-Mar-27 07:54S 33°59' E 151°24'6 3.0
2020-Mar-27 06:00S 33°53' E 151°23'8 3.2
2020-Mar-27 03:30S 33°55' E 151°32'9 1.5
2020-Mar-26 21:30S 33°49' E 151°24'510.1
2020-Mar-26 21:00S 33°53' E 151°22'28 1.3
2020-Mar-25 22:58S 33°44' E 151°53'15 6.1
2020-Mar-25 20:30S 33°33' E 151°40'39 7.8
2020-Mar-25 15:31S 34°07' E 151°17'1 0.3
2020-Mar-25 13:30S 34°07' E 151°17'2 3.1
2020-Mar-25 13:00S 34°07' E 151°19'8 3.1
2020-Mar-25 10:30S 34°05' E 151°27'9 4.5
2020-Mar-25 08:30S 34°03' E 151°38'510.2
2020-Mar-25 08:00S 34°03' E 151°44'12 1.7
2020-Mar-25 00:40S 34°04' E 151°59'0 1.3
2020-Mar-25 00:30S 34°04' E 151°59'3 1.7
2020-Mar-24 22:35S 34°03' E 151°55'3 2.1
2020-Mar-24 21:22S 34°02' E 151°52'3 2.5
2020-Mar-24 20:00S 33°60' E 151°49'1 2.8
2020-Mar-24 19:31S 33°59' E 151°47'1 2.8
2020-Mar-24 19:01S 33°58' E 151°46'5 3.0
2020-Mar-24 17:31S 33°55' E 151°42'1 2.8
2020-Mar-24 17:01S 33°54' E 151°41'3 2.1
2020-Mar-24 15:30S 33°52' E 151°39'1510.1
2020-Mar-24 13:59S 33°52' E 151°57'3 7.0
2020-Mar-24 13:30S 33°54' E 151°53'5 9.4
2020-Mar-24 13:00S 33°53' E 151°48'18 5.8
2020-Mar-24 10:00S 33°51' E 151°27'3 2.3
2020-Mar-24 08:30S 33°51' E 151°31'1 2.3
2020-Mar-24 08:00S 33°51' E 151°32'1 2.1
2020-Mar-24 07:30S 33°51' E 151°34'5 2.3
2020-Mar-24 05:30S 33°51' E 151°39'15 3.8
2020-Mar-24 01:30S 33°60' E 151°24'3 2.6
2020-Mar-24 00:30S 34°01' E 151°22'1 1.1
2020-Mar-23 23:30S 34°01' E 151°23'2 0.8
2020-Mar-23 20:57S 33°60' E 151°25'2 1.3
2020-Mar-23 19:30S 34°01' E 151°26'  

Dump ship's entire track history